createdAt,value
2023-03-31T00:02:22.037Z,78.11
2023-03-31T00:05:29.428Z,77.96
2023-03-31T00:08:47.650Z,78.32
2023-03-31T00:11:53.231Z,78.18
2023-03-31T00:14:58.301Z,77.80
2023-03-31T00:18:06.498Z,77.42
2023-03-31T00:21:14.791Z,77.95
2023-03-31T00:24:23.510Z,77.74
2023-03-31T00:27:28.518Z,77.87
2023-03-31T00:30:31.262Z,78.18
2023-03-31T00:33:36.246Z,78.57
2023-03-31T00:36:50.713Z,78.95
2023-03-31T00:39:54.025Z,79.36
2023-03-31T00:42:59.141Z,79.56
2023-03-31T00:46:27.512Z,79.29
2023-03-31T00:49:33.995Z,79.03
2023-03-31T00:52:40.468Z,79.36
2023-03-31T00:55:59.978Z,79.38
2023-03-31T00:59:08.754Z,79.50
2023-03-31T01:02:14.412Z,79.73
2023-03-31T01:05:20.480Z,79.58
2023-03-31T01:08:27.473Z,79.78
2023-03-31T01:11:32.515Z,79.66
2023-03-31T01:14:35.639Z,79.66
2023-03-31T01:17:45.025Z,79.65
2023-03-31T01:21:31.579Z,79.43
2023-03-31T01:25:04.300Z,79.59
2023-03-31T01:28:14.115Z,79.73
2023-03-31T01:32:16.820Z,79.40
2023-03-31T01:35:51.699Z,79.48
2023-03-31T01:39:26.663Z,79.56
2023-03-31T01:42:37.393Z,79.42
2023-03-31T01:45:57.124Z,79.41
2023-03-31T01:49:07.473Z,79.39
2023-03-31T01:52:20.648Z,79.13
2023-03-31T01:55:30.296Z,79.12
2023-03-31T01:58:39.016Z,79.11
2023-03-31T02:01:52.374Z,78.69
2023-03-31T02:05:02.740Z,78.50
2023-03-31T02:08:24.025Z,78.35
2023-03-31T02:11:31.918Z,78.60
2023-03-31T02:14:47.885Z,78.11
2023-03-31T02:17:54.743Z,77.99
2023-03-31T02:21:06.131Z,78.06
2023-03-31T02:27:34.371Z,78.29
2023-03-31T02:30:47.077Z,78.03
2023-03-31T02:34:03.210Z,78.14
2023-03-31T02:37:08.776Z,78.40
2023-03-31T02:40:17.212Z,78.21
2023-03-31T02:43:20.169Z,78.30
2023-03-31T02:46:32.740Z,78.63
2023-03-31T02:49:51.225Z,78.55
2023-03-31T02:53:04.795Z,78.75
2023-03-31T02:56:25.716Z,79.09
2023-03-31T02:59:45.750Z,79.09
2023-03-31T03:03:08.055Z,79.11
2023-03-31T03:06:23.638Z,79.03
2023-03-31T03:09:49.037Z,79.39
2023-03-31T03:12:58.679Z,79.84
2023-03-31T03:16:07.000Z,80.14
2023-03-31T03:19:24.544Z,79.99
2023-03-31T03:22:27.223Z,80.22
2023-03-31T03:25:30.680Z,80.29
2023-03-31T03:28:33.316Z,80.93
2023-03-31T03:31:39.205Z,81.08
2023-03-31T03:34:43.218Z,81.73
2023-03-31T03:37:52.651Z,82.18
2023-03-31T03:40:59.770Z,82.77
2023-03-31T03:44:05.721Z,82.43
2023-03-31T03:47:11.416Z,82.80
2023-03-31T03:50:16.305Z,82.66
2023-03-31T03:53:19.228Z,82.80
2023-03-31T03:56:24.850Z,82.86
2023-03-31T03:59:27.500Z,83.23
2023-03-31T04:02:37.577Z,83.03
2023-03-31T04:05:43.651Z,83.84
2023-03-31T04:08:53.567Z,85.00
2023-03-31T04:11:56.205Z,86.06
2023-03-31T04:14:58.798Z,86.40
2023-03-31T04:18:02.048Z,87.22
2023-03-31T04:21:06.256Z,87.81
2023-03-31T04:24:11.669Z,88.24
2023-03-31T04:27:21.149Z,89.29
2023-03-31T04:30:24.747Z,90.04
2023-03-31T04:33:40.854Z,89.80
2023-03-31T04:36:47.958Z,89.49
2023-03-31T04:39:54.625Z,89.05
2023-03-31T04:43:01.090Z,88.97
2023-03-31T04:46:04.010Z,89.44
2023-03-31T04:49:13.006Z,88.78
2023-03-31T04:52:17.477Z,89.22
2023-03-31T04:55:29.831Z,88.99
2023-03-31T04:58:57.826Z,89.23
2023-03-31T05:02:00.592Z,89.67
2023-03-31T05:05:03.797Z,89.63
2023-03-31T05:08:08.010Z,89.66
2023-03-31T05:11:10.972Z,89.57
2023-03-31T05:14:13.573Z,89.27
2023-03-31T05:17:17.985Z,88.86
2023-03-31T05:20:21.512Z,88.78
2023-03-31T05:23:25.661Z,88.52
2023-03-31T05:26:28.279Z,88.00
2023-03-31T05:29:31.256Z,87.66
2023-03-31T05:32:34.085Z,87.89
2023-03-31T05:35:36.921Z,87.57
2023-03-31T05:38:41.566Z,87.11
2023-03-31T05:41:44.240Z,87.03
2023-03-31T05:44:47.114Z,86.97
2023-03-31T05:47:51.976Z,86.62
2023-03-31T05:51:04.723Z,86.40
2023-03-31T05:54:09.030Z,86.66
2023-03-31T05:57:12.145Z,86.57
2023-03-31T06:00:17.792Z,86.65
2023-03-31T06:06:40.247Z,86.51
2023-03-31T06:09:44.379Z,86.59
2023-03-31T06:12:49.440Z,86.87
2023-03-31T06:15:56.316Z,86.51
2023-03-31T06:19:01.322Z,86.46
2023-03-31T06:22:04.113Z,86.52
2023-03-31T06:25:09.266Z,86.68
2023-03-31T06:28:11.943Z,86.30
2023-03-31T06:31:16.830Z,86.65
2023-03-31T06:34:22.540Z,86.52
2023-03-31T06:37:28.018Z,86.51
2023-03-31T06:40:32.076Z,86.71
2023-03-31T06:43:34.875Z,86.53
2023-03-31T06:46:40.464Z,87.04
2023-03-31T06:49:43.172Z,86.88
2023-03-31T06:52:52.730Z,87.09
2023-03-31T06:56:04.727Z,86.76
2023-03-31T06:59:26.478Z,87.00
2023-03-31T07:02:29.295Z,86.79
2023-03-31T07:05:32.679Z,86.83
2023-03-31T07:08:36.201Z,86.71
2023-03-31T07:11:46.280Z,86.78
2023-03-31T07:14:56.781Z,86.66
2023-03-31T07:18:02.293Z,86.36
2023-03-31T07:21:09.625Z,86.27
2023-03-31T07:24:12.761Z,86.11
2023-03-31T07:27:18.726Z,86.12
2023-03-31T07:30:26.788Z,86.00
2023-03-31T07:33:31.808Z,85.80
2023-03-31T07:36:42.974Z,85.94
2023-03-31T07:39:47.290Z,85.37
2023-03-31T07:42:52.514Z,85.40
2023-03-31T07:45:55.254Z,85.43
2023-03-31T07:48:58.599Z,85.53
2023-03-31T07:52:04.158Z,85.52
2023-03-31T07:55:20.823Z,85.36
2023-03-31T07:58:27.631Z,85.47
2023-03-31T08:01:30.346Z,85.48
2023-03-31T08:04:33.392Z,85.36
2023-03-31T08:07:41.642Z,85.34
2023-03-31T08:10:46.270Z,85.24
2023-03-31T08:13:55.955Z,84.53
2023-03-31T08:17:00.166Z,84.51
2023-03-31T08:20:07.991Z,84.77
2023-03-31T08:23:15.735Z,84.52
2023-03-31T08:26:24.196Z,83.95
2023-03-31T08:29:28.184Z,83.74
2023-03-31T08:32:47.718Z,83.23
2023-03-31T08:36:16.298Z,82.96
2023-03-31T08:39:21.620Z,83.12
2023-03-31T08:42:48.286Z,83.28
2023-03-31T08:48:58.134Z,83.56
2023-03-31T08:52:04.897Z,83.07
2023-03-31T08:55:20.489Z,82.88
2023-03-31T08:58:37.137Z,82.17
2023-03-31T09:01:57.776Z,82.11
2023-03-31T09:05:46.007Z,81.70
2023-03-31T09:12:45.478Z,81.26
2023-03-31T09:15:54.515Z,80.88
2023-03-31T09:19:01.615Z,80.01
2023-03-31T09:22:07.556Z,79.19
2023-03-31T09:25:15.041Z,77.79
2023-03-31T09:28:22.555Z,77.09
2023-03-31T09:31:29.188Z,76.78
2023-03-31T09:34:36.218Z,76.09
2023-03-31T09:37:49.074Z,75.93
2023-03-31T09:40:51.868Z,75.82
2023-03-31T09:43:54.627Z,75.54
2023-03-31T09:46:59.142Z,75.45
2023-03-31T09:50:09.432Z,75.18
2023-03-31T09:53:24.073Z,75.42
2023-03-31T09:56:48.814Z,73.93
2023-03-31T09:59:52.417Z,73.61
2023-03-31T10:02:56.510Z,73.23
2023-03-31T10:06:00.552Z,73.15
2023-03-31T10:09:12.430Z,74.85
2023-03-31T10:12:20.225Z,75.37
2023-03-31T10:15:27.064Z,76.48
2023-03-31T10:18:35.179Z,77.32
2023-03-31T10:21:47.505Z,78.43
2023-03-31T10:24:52.069Z,78.41
2023-03-31T10:27:57.415Z,79.25
2023-03-31T10:31:03.435Z,79.38
2023-03-31T10:34:09.512Z,80.18
2023-03-31T10:37:19.444Z,79.90
2023-03-31T10:40:25.697Z,79.15
2023-03-31T10:43:39.674Z,79.19
2023-03-31T10:46:47.671Z,78.70
2023-03-31T10:50:01.343Z,78.03
2023-03-31T10:53:07.824Z,77.55
2023-03-31T10:56:22.290Z,77.20
2023-03-31T10:59:45.727Z,76.83
2023-03-31T11:03:26.002Z,76.44
2023-03-31T11:06:41.416Z,75.69
2023-03-31T11:10:03.410Z,75.04
2023-03-31T11:13:11.258Z,74.14
2023-03-31T11:16:22.094Z,73.27
2023-03-31T11:19:39.940Z,72.32
2023-03-31T11:22:48.649Z,71.56
2023-03-31T11:25:59.721Z,71.27
2023-03-31T11:29:16.431Z,71.58
2023-03-31T11:32:56.860Z,72.00
2023-03-31T11:36:13.643Z,72.41
2023-03-31T11:39:29.855Z,72.08
2023-03-31T11:42:43.271Z,72.41
2023-03-31T11:45:53.576Z,72.91
2023-03-31T11:49:03.720Z,72.26
2023-03-31T11:52:10.893Z,72.28
2023-03-31T11:55:17.981Z,70.11
2023-03-31T11:58:28.435Z,69.99
2023-03-31T12:01:38.904Z,69.51
2023-03-31T12:04:44.985Z,69.13
2023-03-31T12:07:53.332Z,68.49
2023-03-31T12:11:02.196Z,68.54
2023-03-31T12:14:17.286Z,68.21
2023-03-31T12:17:24.025Z,68.29
2023-03-31T12:20:32.239Z,67.91
2023-03-31T12:23:40.400Z,67.44
2023-03-31T12:26:53.371Z,66.57
2023-03-31T12:30:03.579Z,66.48
2023-03-31T12:33:13.386Z,65.99
2023-03-31T12:36:33.671Z,65.75
2023-03-31T12:39:46.570Z,64.92
2023-03-31T12:43:10.256Z,64.79
2023-03-31T12:46:29.478Z,64.69
2023-03-31T12:49:50.250Z,65.74
2023-03-31T12:53:02.086Z,66.43
2023-03-31T12:56:06.240Z,67.05
2023-03-31T12:59:33.131Z,66.82
2023-03-31T13:02:37.458Z,66.53
2023-03-31T13:05:48.520Z,65.06
2023-03-31T13:08:57.073Z,64.52
2023-03-31T13:12:31.728Z,64.03
2023-03-31T13:15:34.661Z,63.77
2023-03-31T13:18:43.539Z,63.06
2023-03-31T13:22:00.093Z,62.85
2023-03-31T13:25:44.219Z,62.61
2023-03-31T13:28:46.817Z,61.47
2023-03-31T13:32:29.026Z,60.03
2023-03-31T13:35:37.889Z,58.81
2023-03-31T13:38:54.120Z,58.15
2023-03-31T13:42:19.710Z,56.73
2023-03-31T13:45:45.461Z,56.08
2023-03-31T13:49:06.130Z,55.73
2023-03-31T13:52:12.938Z,54.66
2023-03-31T13:55:52.012Z,54.00
2023-03-31T13:59:13.444Z,52.48
2023-03-31T14:02:48.614Z,53.15
2023-03-31T14:05:57.112Z,52.43
2023-03-31T14:09:05.873Z,52.13
2023-03-31T14:12:22.209Z,51.72
2023-03-31T14:15:27.897Z,50.95
2023-03-31T14:18:35.256Z,51.10
2023-03-31T14:21:44.158Z,51.31
2023-03-31T14:24:54.101Z,52.16
2023-03-31T14:28:13.762Z,52.89
2023-03-31T14:31:23.375Z,52.72
2023-03-31T14:34:47.688Z,51.60
2023-03-31T14:37:51.087Z,51.69
2023-03-31T14:40:57.504Z,51.35
2023-03-31T14:44:04.067Z,51.19
2023-03-31T14:47:16.247Z,51.73
2023-03-31T14:50:20.019Z,52.12
2023-03-31T14:53:25.853Z,51.86
2023-03-31T14:56:37.400Z,52.64
2023-03-31T14:59:40.848Z,53.02
2023-03-31T15:02:45.903Z,53.07
2023-03-31T15:05:49.827Z,53.69
2023-03-31T15:08:59.754Z,53.90
2023-03-31T15:12:06.018Z,53.17
2023-03-31T15:15:12.912Z,52.32
2023-03-31T15:18:21.711Z,51.61
2023-03-31T15:21:26.541Z,52.35
2023-03-31T15:24:31.887Z,52.19
2023-03-31T15:27:39.868Z,52.05
2023-03-31T15:30:43.457Z,52.57
2023-03-31T15:33:48.232Z,52.84
2023-03-31T15:36:51.966Z,53.57
2023-03-31T15:39:57.643Z,53.96
2023-03-31T15:46:27.210Z,55.86
2023-03-31T15:49:30.913Z,57.32
2023-03-31T15:52:36.681Z,59.79
2023-03-31T15:59:05.810Z,64.43
2023-03-31T16:02:14.619Z,65.89
2023-03-31T16:05:37.181Z,66.66
2023-03-31T16:08:44.833Z,67.44
2023-03-31T16:11:52.123Z,67.60
2023-03-31T16:15:06.065Z,68.17
2023-03-31T16:18:12.116Z,67.66
2023-03-31T16:21:31.285Z,67.60
2023-03-31T16:24:36.644Z,67.38
2023-03-31T16:27:43.238Z,67.09
2023-03-31T16:30:55.909Z,66.80
2023-03-31T16:34:09.643Z,66.99
2023-03-31T16:37:13.690Z,66.70
2023-03-31T16:40:21.799Z,67.22
2023-03-31T16:43:26.434Z,67.58
2023-03-31T16:46:36.953Z,68.27
2023-03-31T16:49:39.774Z,68.46
2023-03-31T16:52:45.392Z,69.27
2023-03-31T16:55:48.505Z,69.36
2023-03-31T16:58:53.732Z,70.21
2023-03-31T17:01:58.276Z,70.21
2023-03-31T17:05:12.681Z,70.40
2023-03-31T17:08:16.890Z,70.56
2023-03-31T17:11:19.574Z,70.77
2023-03-31T17:14:22.189Z,70.76
2023-03-31T17:17:30.294Z,71.16
2023-03-31T17:20:34.133Z,71.28
2023-03-31T17:23:38.116Z,72.05
2023-03-31T17:26:48.339Z,72.28
2023-03-31T17:29:53.278Z,72.36
2023-03-31T17:32:58.335Z,72.67
2023-03-31T17:36:01.143Z,72.49
2023-03-31T17:39:05.010Z,72.84
2023-03-31T17:42:10.320Z,73.09
2023-03-31T17:45:13.120Z,73.39
2023-03-31T17:48:17.465Z,73.48
2023-03-31T17:51:22.192Z,73.68
2023-03-31T17:54:25.039Z,73.64
2023-03-31T17:57:27.863Z,73.88
2023-03-31T18:00:30.611Z,74.15
2023-03-31T18:03:35.365Z,74.00
2023-03-31T18:06:38.739Z,74.50
2023-03-31T18:09:44.493Z,74.31
2023-03-31T18:12:50.773Z,74.43
2023-03-31T18:15:59.740Z,74.68
2023-03-31T18:19:04.071Z,74.28
2023-03-31T18:22:06.819Z,74.23
2023-03-31T18:25:11.191Z,74.25
2023-03-31T18:28:14.784Z,74.36
2023-03-31T18:31:17.564Z,74.10
2023-03-31T18:34:22.069Z,73.92
2023-03-31T18:37:24.842Z,74.22
2023-03-31T18:40:27.834Z,73.99
2023-03-31T18:43:32.095Z,73.91
2023-03-31T18:46:35.997Z,74.09
2023-03-31T18:49:40.033Z,74.11
2023-03-31T18:52:42.678Z,74.04
2023-03-31T18:55:45.721Z,73.67
2023-03-31T18:58:48.407Z,72.77
2023-03-31T19:01:52.355Z,73.41
2023-03-31T19:04:59.249Z,73.64
2023-03-31T19:08:02.167Z,74.07
2023-03-31T19:11:10.186Z,74.22
2023-03-31T19:14:13.676Z,74.24
2023-03-31T19:17:17.705Z,73.88
2023-03-31T19:20:22.172Z,73.75
2023-03-31T19:23:27.010Z,73.54
2023-03-31T19:26:29.963Z,73.69
2023-03-31T19:29:33.980Z,73.95
2023-03-31T19:32:36.719Z,74.03
2023-03-31T19:35:44.643Z,74.12
2023-03-31T19:38:47.363Z,74.13
2023-03-31T19:41:50.044Z,74.26
2023-03-31T19:44:52.832Z,74.29
2023-03-31T19:47:56.391Z,74.44
2023-03-31T19:51:05.747Z,74.52
2023-03-31T19:54:10.746Z,74.54
2023-03-31T19:57:16.086Z,74.37
2023-03-31T20:00:19.928Z,74.27
2023-03-31T20:03:24.875Z,74.77
2023-03-31T20:06:32.031Z,75.11
2023-03-31T20:09:35.209Z,75.61
2023-03-31T20:12:38.058Z,75.64
2023-03-31T20:15:41.187Z,76.20
2023-03-31T20:18:50.503Z,76.17
2023-03-31T20:21:56.055Z,76.55
2023-03-31T20:24:59.883Z,77.17
2023-03-31T20:28:03.020Z,77.11
2023-03-31T20:31:09.016Z,77.07
2023-03-31T20:34:14.985Z,77.33
2023-03-31T20:37:19.200Z,77.17
2023-03-31T20:40:22.622Z,77.42
2023-03-31T20:43:26.670Z,77.16
2023-03-31T20:46:29.485Z,77.25
2023-03-31T20:49:32.413Z,76.96
2023-03-31T20:52:36.725Z,76.70
2023-03-31T20:55:40.226Z,77.04
2023-03-31T20:58:44.381Z,76.97
2023-03-31T21:01:49.551Z,76.87
2023-03-31T21:04:53.148Z,76.74
2023-03-31T21:07:57.742Z,76.65
2023-03-31T21:11:01.646Z,76.84
2023-03-31T21:14:05.807Z,76.98
2023-03-31T21:17:08.568Z,76.81
2023-03-31T21:20:11.971Z,77.09
2023-03-31T21:23:16.071Z,76.46
2023-03-31T21:26:18.998Z,76.20
2023-03-31T21:29:21.726Z,76.63
2023-03-31T21:32:27.469Z,76.44
2023-03-31T21:35:31.635Z,76.09
2023-03-31T21:38:39.390Z,75.44
2023-03-31T21:41:42.261Z,75.15
2023-03-31T21:44:48.070Z,74.71
2023-03-31T21:47:50.893Z,74.96
2023-03-31T21:51:02.118Z,75.02
2023-03-31T21:54:06.787Z,74.98
2023-03-31T21:57:09.605Z,75.10
2023-03-31T22:00:16.520Z,75.01
2023-03-31T22:03:32.014Z,74.93
2023-03-31T22:06:36.141Z,75.13
2023-03-31T22:09:40.297Z,75.15
2023-03-31T22:12:44.950Z,74.53
2023-03-31T22:15:48.192Z,74.75
2023-03-31T22:18:52.913Z,74.48
2023-03-31T22:21:59.367Z,74.41
2023-03-31T22:25:03.430Z,74.33
2023-03-31T22:28:07.345Z,74.34
2023-03-31T22:31:10.373Z,74.30
2023-03-31T22:34:13.278Z,74.12
2023-03-31T22:37:16.191Z,73.85
2023-03-31T22:40:20.564Z,74.08
2023-03-31T22:43:24.182Z,73.84
2023-03-31T22:46:33.522Z,74.04
2023-03-31T22:49:43.842Z,74.12
2023-03-31T22:52:49.602Z,73.96
2023-03-31T22:55:54.846Z,73.52
2023-03-31T22:58:58.558Z,73.52
2023-03-31T23:02:01.299Z,73.15
2023-03-31T23:05:08.522Z,73.60
2023-03-31T23:08:12.018Z,72.94
2023-03-31T23:11:17.513Z,73.33
2023-03-31T23:14:20.581Z,72.74
2023-03-31T23:17:26.543Z,72.59
2023-03-31T23:20:36.869Z,72.92
2023-03-31T23:23:39.892Z,72.90
2023-03-31T23:26:47.618Z,72.92
2023-03-31T23:29:53.455Z,72.78
2023-03-31T23:32:56.297Z,72.80
2023-03-31T23:36:03.836Z,72.63
2023-03-31T23:39:07.544Z,72.60
2023-03-31T23:42:20.502Z,72.22
2023-03-31T23:45:24.131Z,72.41
2023-03-31T23:48:26.972Z,72.56
2023-03-31T23:51:30.042Z,72.42
2023-03-31T23:54:46.728Z,72.27
2023-03-31T23:58:00.234Z,72.15
